createdAt,value
2022-12-22T09:54:00.227Z,13.33
2022-12-22T09:58:53.949Z,12.27
2022-12-22T10:04:00.033Z,10.63
2022-12-22T10:08:56.716Z,21.40
2022-12-22T10:13:50.281Z,22.53
2022-12-22T10:18:57.598Z,15.07
2022-12-22T10:23:51.176Z,12.23
2022-12-22T10:28:49.415Z,10.50
2022-12-22T10:33:47.463Z,13.10
2022-12-22T10:38:54.584Z,10.73
2022-12-22T10:43:52.147Z,10.27
2022-12-22T10:48:45.696Z,10.60
2022-12-22T10:53:43.720Z,11.40
2022-12-22T10:58:51.083Z,11.93
2022-12-22T11:03:44.679Z,10.07
2022-12-22T11:08:38.320Z,10.07
2022-12-22T11:13:48.420Z,9.90
2022-12-22T11:19:02.048Z,9.73
2022-12-22T11:24:03.156Z,9.37
2022-12-22T11:29:06.602Z,9.73
2022-12-22T11:34:15.894Z,10.30
2022-12-22T11:39:16.456Z,10.37
2022-12-22T11:44:38.573Z,11.07
2022-12-22T11:49:50.349Z,10.23
2022-12-22T11:55:11.843Z,7.77
2022-12-22T12:00:11.502Z,9.93
2022-12-22T12:05:29.814Z,8.80
2022-12-22T12:10:27.351Z,8.43
2022-12-22T12:15:31.832Z,9.20
2022-12-22T12:20:49.667Z,8.70
2022-12-22T12:25:49.957Z,12.27
2022-12-22T12:30:52.410Z,13.73
2022-12-22T12:36:01.699Z,8.93
2022-12-22T12:41:02.043Z,9.47
2022-12-22T12:45:56.247Z,9.87
2022-12-22T12:50:50.296Z,11.10
2022-12-22T12:56:06.777Z,13.97
2022-12-22T13:01:02.900Z,12.83
2022-12-22T13:05:57.586Z,12.50
2022-12-22T13:12:10.019Z,12.27
2022-12-22T13:16:42.037Z,13.17
2022-12-22T13:21:54.188Z,13.17
2022-12-22T13:26:50.918Z,12.77
2022-12-22T13:31:48.412Z,14.57
2022-12-22T13:36:42.824Z,14.83
2022-12-22T13:41:36.645Z,16.97
2022-12-22T13:46:31.299Z,15.80
2022-12-22T13:51:30.006Z,14.77
2022-12-22T13:56:26.837Z,14.57
2022-12-22T14:01:21.470Z,16.17
2022-12-22T14:06:26.613Z,15.93
2022-12-22T14:11:21.950Z,15.77
2022-12-22T14:16:16.501Z,15.83
2022-12-22T14:21:12.122Z,14.90
2022-12-22T14:26:07.729Z,16.30
2022-12-22T14:31:05.309Z,16.33
2022-12-22T14:36:17.075Z,18.93
2022-12-22T14:41:34.029Z,20.13
2022-12-22T14:46:32.361Z,19.87
2022-12-22T14:51:30.570Z,21.30
2022-12-22T14:56:24.725Z,21.00
2022-12-22T15:01:25.213Z,22.00
2022-12-22T15:06:36.702Z,20.33
2022-12-22T15:11:32.836Z,20.47
2022-12-22T15:16:27.647Z,19.83
2022-12-22T15:21:23.067Z,19.73
2022-12-22T15:26:18.423Z,20.23
2022-12-22T15:31:16.434Z,26.07
2022-12-22T15:36:12.658Z,25.33
2022-12-22T15:41:06.701Z,22.60
2022-12-22T15:46:02.251Z,25.13
2022-12-22T15:50:56.875Z,29.63
2022-12-22T15:55:52.405Z,23.90
2022-12-22T16:00:46.278Z,23.90
2022-12-22T16:05:42.921Z,22.23
2022-12-22T16:10:36.595Z,19.13
2022-12-22T16:15:32.119Z,20.07
2022-12-22T16:20:26.039Z,21.20
2022-12-22T16:25:26.359Z,22.83
2022-12-22T16:30:22.413Z,33.70
2022-12-22T16:35:19.704Z,24.80
2022-12-22T16:40:14.020Z,32.13
2022-12-22T16:45:20.152Z,34.63
